createdAt,value
2022-08-17T00:01:40.916Z,20.14
2022-08-17T00:04:19.012Z,20.90
2022-08-17T00:06:45.907Z,20.06
2022-08-17T00:09:18.316Z,20.03
2022-08-17T00:12:41.533Z,20.99
2022-08-17T00:14:35.171Z,20.94
2022-08-17T00:17:03.818Z,20.91
2022-08-17T00:19:32.362Z,20.46
2022-08-17T00:22:35.123Z,19.44
2022-08-17T00:24:46.900Z,19.88
2022-08-17T00:27:13.357Z,20.30
2022-08-17T00:29:39.795Z,20.60
2022-08-17T00:33:15.647Z,20.12
2022-08-17T00:34:52.919Z,20.65
2022-08-17T00:37:19.394Z,20.60
2022-08-17T00:39:45.834Z,20.30
2022-08-17T00:42:17.575Z,20.30
2022-08-17T00:44:44.498Z,20.25
2022-08-17T00:47:10.866Z,20.31
2022-08-17T00:49:37.257Z,20.53
2022-08-17T00:52:12.039Z,19.92
2022-08-17T00:54:42.567Z,19.91
2022-08-17T00:57:21.442Z,19.98
2022-08-17T01:05:00.629Z,19.84
2022-08-17T01:07:27.723Z,19.83
2022-08-17T01:09:54.861Z,19.99
2022-08-17T01:12:21.524Z,19.69
2022-08-17T01:14:48.474Z,19.48
2022-08-17T01:17:14.995Z,19.58
2022-08-17T01:19:42.586Z,19.93
2022-08-17T01:22:08.987Z,19.92
2022-08-17T01:24:39.451Z,19.89
2022-08-17T01:27:10.388Z,19.88
2022-08-17T01:29:39.347Z,19.50
2022-08-17T01:32:07.862Z,19.55
2022-08-17T01:34:42.638Z,19.84
2022-08-17T01:37:12.459Z,19.53
2022-08-17T01:39:45.064Z,18.42
2022-08-17T01:42:15.562Z,19.80
2022-08-17T01:44:44.424Z,19.78
2022-08-17T01:47:10.872Z,19.60
2022-08-17T01:49:39.890Z,19.00
2022-08-17T01:52:09.558Z,19.79
2022-08-17T01:54:39.318Z,19.64
2022-08-17T01:57:06.038Z,19.64
2022-08-17T01:59:33.498Z,18.13
2022-08-17T02:02:00.439Z,19.30
2022-08-17T02:04:26.982Z,19.29
2022-08-17T02:06:54.597Z,18.96
2022-08-17T02:09:25.639Z,19.73
2022-08-17T02:11:56.915Z,19.75
2022-08-17T02:14:24.708Z,19.77
2022-08-17T02:16:52.189Z,19.53
2022-08-17T02:19:19.052Z,18.95
2022-08-17T02:21:47.993Z,19.87
2022-08-17T02:25:00.288Z,19.59
2022-08-17T02:27:18.645Z,19.93
2022-08-17T02:29:45.174Z,19.73
2022-08-17T02:32:27.450Z,19.44
2022-08-17T02:34:55.003Z,19.19
2022-08-17T02:37:21.519Z,19.79
2022-08-17T02:39:47.945Z,19.47
2022-08-17T02:42:15.050Z,19.81
2022-08-17T02:44:41.776Z,19.54
2022-08-17T02:47:10.605Z,19.86
2022-08-17T02:49:39.243Z,19.89
2022-08-17T02:52:07.577Z,19.63
2022-08-17T02:54:39.692Z,18.46
2022-08-17T02:57:07.488Z,19.88
2022-08-17T02:59:33.977Z,18.37
2022-08-17T03:02:00.603Z,19.90
2022-08-17T03:04:27.166Z,19.92
2022-08-17T03:06:53.558Z,19.91
2022-08-17T03:09:19.966Z,19.93
2022-08-17T03:11:55.938Z,14.87
2022-08-17T03:14:26.353Z,19.56
2022-08-17T03:16:52.893Z,19.60
2022-08-17T03:19:19.290Z,19.93
2022-08-17T03:21:45.652Z,19.96
2022-08-17T03:24:12.033Z,19.92
2022-08-17T03:26:38.406Z,19.90
2022-08-17T03:29:04.770Z,19.45
2022-08-17T03:31:31.473Z,19.93
2022-08-17T03:33:58.044Z,19.37
2022-08-17T03:36:25.256Z,19.80
2022-08-17T03:38:51.692Z,19.06
2022-08-17T03:41:18.104Z,19.52
2022-08-17T03:43:44.466Z,19.59
2022-08-17T03:46:35.016Z,19.55
2022-08-17T03:49:26.019Z,19.08
2022-08-17T03:52:12.909Z,19.51
2022-08-17T03:55:00.149Z,19.50
2022-08-17T03:57:27.193Z,19.46
2022-08-17T03:59:54.451Z,19.48
2022-08-17T04:02:29.626Z,19.48
2022-08-17T04:04:56.627Z,19.37
2022-08-17T04:07:27.413Z,19.18
2022-08-17T04:09:54.599Z,19.59
2022-08-17T04:12:22.685Z,19.62
2022-08-17T04:14:53.107Z,19.11
2022-08-17T04:17:28.083Z,19.65
2022-08-17T04:19:55.516Z,19.73
2022-08-17T04:22:30.132Z,19.67
2022-08-17T04:25:18.441Z,19.84
2022-08-17T04:27:44.809Z,19.41
2022-08-17T04:30:12.453Z,19.60
2022-08-17T04:33:03.419Z,19.94
2022-08-17T04:35:35.963Z,19.38
2022-08-17T04:38:02.383Z,19.87
2022-08-17T04:40:47.438Z,19.45
2022-08-17T04:43:18.663Z,20.17
2022-08-17T04:45:56.923Z,20.23
2022-08-17T04:48:33.387Z,20.27
2022-08-17T04:51:10.582Z,20.28
2022-08-17T04:53:38.541Z,19.60
2022-08-17T04:56:05.354Z,19.93
2022-08-17T04:58:31.764Z,19.59
2022-08-17T05:00:58.253Z,20.43
2022-08-17T05:03:24.667Z,20.45
2022-08-17T05:05:51.152Z,20.28
2022-08-17T05:08:19.799Z,20.02
2022-08-17T05:10:47.426Z,20.16
2022-08-17T05:13:20.921Z,20.38
2022-08-17T05:15:49.947Z,20.46
2022-08-17T05:18:17.324Z,19.33
2022-08-17T05:20:45.082Z,20.53
2022-08-17T05:23:14.637Z,20.67
2022-08-17T05:25:47.585Z,20.73
2022-08-17T05:28:16.303Z,19.92
2022-08-17T05:30:44.570Z,20.85
2022-08-17T05:33:14.781Z,20.77
2022-08-17T05:35:44.531Z,20.99
2022-08-17T05:38:10.934Z,20.25
2022-08-17T05:40:38.242Z,21.14
2022-08-17T05:43:09.109Z,21.25
2022-08-17T05:45:55.305Z,21.25
2022-08-17T05:48:39.690Z,20.37
2022-08-17T05:51:27.283Z,21.25
2022-08-17T05:54:28.993Z,21.18
2022-08-17T05:57:32.268Z,21.19
2022-08-17T06:00:18.352Z,20.91
2022-08-17T06:03:14.783Z,21.36
2022-08-17T06:06:09.262Z,21.51
2022-08-17T06:09:11.015Z,21.68
2022-08-17T06:11:43.210Z,21.76
2022-08-17T06:14:38.266Z,21.93
2022-08-17T06:17:10.802Z,22.07
2022-08-17T06:19:54.491Z,21.73
2022-08-17T06:22:23.382Z,22.18
2022-08-17T06:24:56.822Z,22.42
2022-08-17T06:27:36.246Z,22.54
2022-08-17T06:30:11.179Z,22.54
2022-08-17T06:32:40.358Z,21.87
2022-08-17T06:35:09.335Z,22.54
2022-08-17T06:37:49.595Z,22.62
2022-08-17T06:40:37.543Z,22.79
2022-08-17T06:43:19.291Z,22.85
2022-08-17T06:45:50.331Z,22.91
2022-08-17T06:48:27.818Z,23.00
2022-08-17T06:51:07.213Z,23.06
2022-08-17T06:53:42.904Z,23.08
2022-08-17T06:56:21.379Z,23.07
2022-08-17T06:58:48.294Z,23.07
2022-08-17T07:01:20.828Z,22.62
2022-08-17T07:03:59.120Z,23.09
2022-08-17T07:06:42.727Z,23.18
2022-08-17T07:09:18.526Z,22.43
2022-08-17T07:12:02.566Z,22.96
2022-08-17T07:14:39.876Z,23.42
2022-08-17T07:17:13.811Z,23.19
2022-08-17T07:19:42.385Z,23.58
2022-08-17T07:22:20.950Z,23.55
2022-08-17T07:24:52.486Z,23.62
2022-08-17T07:27:30.914Z,23.41
2022-08-17T07:30:11.677Z,23.33
2022-08-17T07:32:45.221Z,23.37
2022-08-17T07:35:20.975Z,23.87
2022-08-17T07:38:07.038Z,24.01
2022-08-17T07:41:01.083Z,24.19
2022-08-17T07:43:31.971Z,24.34
2022-08-17T07:46:17.293Z,24.42
2022-08-17T07:48:49.679Z,23.19
2022-08-17T07:51:25.168Z,24.27
2022-08-17T07:53:53.776Z,24.13
2022-08-17T07:56:44.271Z,23.46
2022-08-17T07:59:12.365Z,23.97
2022-08-17T08:01:44.388Z,24.11
2022-08-17T08:07:20.443Z,24.47
2022-08-17T08:10:01.712Z,24.34
2022-08-17T08:12:39.409Z,24.73
2022-08-17T08:15:11.903Z,24.81
2022-08-17T08:17:46.859Z,24.78
2022-08-17T08:20:51.260Z,24.25
2022-08-17T08:23:11.950Z,24.07
2022-08-17T08:25:44.424Z,24.64
2022-08-17T08:28:18.694Z,24.50
2022-08-17T08:30:57.486Z,23.97
2022-08-17T08:34:02.746Z,24.06
2022-08-17T08:36:59.343Z,22.78
2022-08-17T08:39:46.207Z,23.70
2022-08-17T08:42:25.673Z,23.49
2022-08-17T08:45:05.504Z,23.74
2022-08-17T08:47:55.399Z,23.62
2022-08-17T08:50:40.188Z,23.23
2022-08-17T08:53:23.341Z,22.61
2022-08-17T08:56:02.687Z,23.23
2022-08-17T08:58:59.331Z,23.22
2022-08-17T09:01:43.920Z,22.94
2022-08-17T09:05:10.644Z,22.77
2022-08-17T09:07:46.370Z,23.32
2022-08-17T09:10:27.726Z,23.27
2022-08-17T09:13:23.848Z,22.87
2022-08-17T09:15:58.867Z,23.17
2022-08-17T09:19:01.517Z,23.29
2022-08-17T09:21:33.801Z,23.45
2022-08-17T09:24:12.670Z,23.49
2022-08-17T09:26:59.370Z,23.24
2022-08-17T09:29:29.386Z,23.84
2022-08-17T09:31:59.581Z,23.50
2022-08-17T09:34:36.631Z,23.81
2022-08-17T09:37:22.511Z,23.97
2022-08-17T09:40:15.098Z,23.20
2022-08-17T09:42:52.394Z,23.63
2022-08-17T09:45:30.008Z,22.79
2022-08-17T09:48:01.941Z,23.51
2022-08-17T09:50:55.320Z,23.20
2022-08-17T09:53:22.970Z,22.22
2022-08-17T09:56:12.355Z,22.92
2022-08-17T09:59:00.444Z,23.34
2022-08-17T10:01:37.805Z,23.30
2022-08-17T10:04:20.422Z,23.14
2022-08-17T10:06:47.594Z,23.07
2022-08-17T10:09:36.526Z,22.93
2022-08-17T10:12:30.441Z,22.64
2022-08-17T10:15:13.309Z,22.66
2022-08-17T10:18:11.048Z,22.50
2022-08-17T10:21:19.733Z,21.68
2022-08-17T10:24:09.669Z,22.45
2022-08-17T10:26:46.275Z,22.08
2022-08-17T10:29:48.578Z,22.17
2022-08-17T10:32:37.510Z,22.41
2022-08-17T10:35:25.603Z,22.40
2022-08-17T10:38:25.442Z,22.14
2022-08-17T10:40:58.944Z,22.00
2022-08-17T10:44:37.515Z,22.14
2022-08-17T10:46:55.590Z,21.91
2022-08-17T10:49:29.362Z,22.26
2022-08-17T10:52:01.868Z,22.38
2022-08-17T10:54:40.460Z,22.48
2022-08-17T10:57:29.791Z,22.37
2022-08-17T10:59:58.255Z,22.01
2022-08-17T11:02:50.083Z,22.62
2022-08-17T11:05:41.471Z,22.63
2022-08-17T11:08:22.255Z,22.68
2022-08-17T11:11:26.317Z,22.87
2022-08-17T11:14:24.501Z,22.90
2022-08-17T11:17:06.221Z,24.08
2022-08-17T11:20:05.403Z,24.55
2022-08-17T11:22:47.045Z,25.67
2022-08-17T11:25:31.450Z,25.81
2022-08-17T11:28:09.327Z,26.58
2022-08-17T11:30:48.686Z,26.46
2022-08-17T11:33:33.945Z,27.10
2022-08-17T11:36:21.882Z,26.80
2022-08-17T11:38:57.754Z,26.24
2022-08-17T11:41:30.296Z,26.06
2022-08-17T11:44:17.998Z,25.25
2022-08-17T11:46:45.118Z,26.09
2022-08-17T11:50:07.430Z,25.98
2022-08-17T11:52:38.627Z,26.16
2022-08-17T11:55:34.061Z,26.01
2022-08-17T11:58:08.454Z,25.88
2022-08-17T12:00:44.721Z,26.25
2022-08-17T12:03:23.502Z,26.35
2022-08-17T12:06:00.965Z,26.08
2022-08-17T12:08:32.532Z,26.03
2022-08-17T12:11:04.480Z,26.31
2022-08-17T12:13:39.411Z,26.02
2022-08-17T12:16:07.132Z,26.60
2022-08-17T12:18:37.424Z,26.93
2022-08-17T12:21:24.631Z,27.53
2022-08-17T12:24:32.182Z,27.77
2022-08-17T12:27:01.253Z,27.54
2022-08-17T12:29:35.630Z,27.43
2022-08-17T12:32:07.032Z,27.40
2022-08-17T12:34:42.472Z,27.68
2022-08-17T12:37:32.089Z,26.27
2022-08-17T12:40:05.818Z,26.76
2022-08-17T12:42:37.357Z,26.70
2022-08-17T12:45:07.418Z,26.67
2022-08-17T12:47:37.107Z,26.87
2022-08-17T12:50:29.014Z,26.81
2022-08-17T12:53:01.666Z,27.00
2022-08-17T12:55:35.035Z,26.83
2022-08-17T12:58:02.366Z,27.09
2022-08-17T13:00:47.536Z,27.00
2022-08-17T13:06:10.970Z,27.33
2022-08-17T13:08:44.484Z,27.38
2022-08-17T13:11:13.673Z,27.11
2022-08-17T13:13:44.856Z,26.86
2022-08-17T13:16:14.349Z,27.22
2022-08-17T13:18:50.153Z,27.06
2022-08-17T13:21:19.221Z,26.93
2022-08-17T13:24:03.899Z,27.06
2022-08-17T13:26:50.799Z,27.65
2022-08-17T13:29:31.184Z,27.25
2022-08-17T13:32:09.068Z,27.86
2022-08-17T13:35:12.433Z,28.05
2022-08-17T13:37:36.764Z,28.04
2022-08-17T13:40:09.496Z,28.10
2022-08-17T13:42:51.935Z,27.91
2022-08-17T13:45:35.131Z,27.80
2022-08-17T13:48:08.805Z,27.35
2022-08-17T13:51:03.065Z,27.10
2022-08-17T13:53:53.913Z,27.09
2022-08-17T13:56:37.558Z,26.87
2022-08-17T13:59:09.679Z,26.30
2022-08-17T14:01:42.275Z,26.12
2022-08-17T14:04:14.402Z,26.75
2022-08-17T14:07:01.377Z,26.57
2022-08-17T14:09:37.269Z,26.25
2022-08-17T14:12:10.639Z,26.53
2022-08-17T14:14:37.735Z,27.12
2022-08-17T14:17:05.052Z,27.31
2022-08-17T14:19:34.477Z,26.79
2022-08-17T14:22:01.764Z,26.47
2022-08-17T14:24:29.962Z,27.00
2022-08-17T14:26:57.660Z,26.57
2022-08-17T14:29:27.925Z,26.59
2022-08-17T14:31:58.158Z,26.74
2022-08-17T14:34:25.358Z,26.51
2022-08-17T14:36:52.764Z,26.44
2022-08-17T14:39:20.183Z,25.65
2022-08-17T14:41:46.958Z,25.93
2022-08-17T14:44:13.727Z,26.17
2022-08-17T14:46:42.092Z,26.24
2022-08-17T14:49:12.582Z,26.52
2022-08-17T14:51:44.051Z,26.83
2022-08-17T14:54:29.483Z,26.81
2022-08-17T14:57:14.805Z,26.83
2022-08-17T14:59:45.401Z,26.61
2022-08-17T15:02:12.205Z,26.38
2022-08-17T15:04:43.411Z,26.46
2022-08-17T15:07:11.839Z,25.99
2022-08-17T15:09:38.490Z,23.74
2022-08-17T15:12:08.288Z,26.44
2022-08-17T15:14:37.374Z,27.33
2022-08-17T15:17:03.864Z,27.60
2022-08-17T15:19:30.729Z,27.85
2022-08-17T15:21:57.441Z,27.90
2022-08-17T15:24:26.760Z,26.76
2022-08-17T15:26:53.151Z,26.64
2022-08-17T15:29:19.526Z,26.12
2022-08-17T15:35:04.026Z,22.25
2022-08-17T15:37:31.995Z,22.05
2022-08-17T15:40:00.623Z,25.88
2022-08-17T15:42:27.884Z,25.81
2022-08-17T15:44:55.138Z,26.02
2022-08-17T15:47:22.266Z,25.62
2022-08-17T15:49:49.155Z,26.51
2022-08-17T15:52:28.914Z,26.55
2022-08-17T15:54:58.373Z,26.00
2022-08-17T15:57:27.477Z,25.19
2022-08-17T15:59:58.888Z,25.97
2022-08-17T16:03:16.068Z,25.95
2022-08-17T16:05:24.821Z,25.37
2022-08-17T16:08:03.274Z,25.40
2022-08-17T16:10:34.825Z,25.74
2022-08-17T16:13:06.347Z,25.90
2022-08-17T16:15:58.878Z,26.03
2022-08-17T16:18:45.774Z,25.87
2022-08-17T16:21:43.092Z,24.28
2022-08-17T16:24:14.854Z,26.18
2022-08-17T16:26:49.092Z,25.96
2022-08-17T16:29:15.545Z,25.55
2022-08-17T16:31:44.993Z,25.75
2022-08-17T16:34:27.208Z,25.24
2022-08-17T16:36:58.918Z,25.41
2022-08-17T16:39:37.004Z,26.11
2022-08-17T16:42:04.882Z,24.47
2022-08-17T16:44:32.387Z,26.04
2022-08-17T16:47:01.235Z,25.76
2022-08-17T16:49:36.635Z,26.15
2022-08-17T16:52:06.644Z,26.33
2022-08-17T16:54:37.119Z,25.95
2022-08-17T16:57:06.029Z,26.16
2022-08-17T16:59:41.922Z,26.14
2022-08-17T17:02:12.703Z,25.50
2022-08-17T17:05:28.487Z,25.96
2022-08-17T17:08:12.742Z,25.75
2022-08-17T17:10:47.645Z,25.57
2022-08-17T17:13:32.228Z,25.62
2022-08-17T17:16:14.447Z,25.17
2022-08-17T17:18:56.372Z,25.08
2022-08-17T17:21:33.969Z,24.51
2022-08-17T17:24:10.558Z,25.06
2022-08-17T17:26:55.281Z,24.61
2022-08-17T17:29:24.520Z,25.08
2022-08-17T17:32:17.302Z,24.85
2022-08-17T17:34:50.529Z,24.93
2022-08-17T17:37:33.917Z,24.50
2022-08-17T17:40:06.754Z,24.79
2022-08-17T17:42:33.697Z,24.48
2022-08-17T17:45:21.729Z,24.67
2022-08-17T17:47:48.191Z,24.59
2022-08-17T17:50:20.358Z,24.51
2022-08-17T17:53:04.341Z,24.07
2022-08-17T17:55:49.494Z,24.27
2022-08-17T17:58:33.205Z,23.45
2022-08-17T18:01:47.952Z,23.80
2022-08-17T18:08:40.204Z,23.95
2022-08-17T18:11:15.278Z,23.89
2022-08-17T18:14:17.375Z,23.34
2022-08-17T18:16:48.957Z,23.33
2022-08-17T18:19:29.763Z,23.60
2022-08-17T18:22:17.569Z,23.54
2022-08-17T18:27:38.885Z,23.41
2022-08-17T18:30:32.583Z,22.54
2022-08-17T18:34:14.633Z,23.21
2022-08-17T18:37:01.115Z,19.85
2022-08-17T18:39:56.115Z,22.97
2022-08-17T18:45:17.951Z,20.07
2022-08-17T18:48:27.802Z,20.35
2022-08-17T18:51:02.076Z,22.60
2022-08-17T18:53:38.396Z,18.72
2022-08-17T18:56:42.484Z,22.46
2022-08-17T18:59:29.269Z,22.27
2022-08-17T19:02:23.214Z,22.30
2022-08-17T19:05:39.430Z,21.78
2022-08-17T19:08:42.681Z,22.13
2022-08-17T19:14:27.625Z,21.61
2022-08-17T19:17:02.284Z,21.26
2022-08-17T19:19:42.661Z,21.77
2022-08-17T19:23:05.279Z,20.10
2022-08-17T19:25:37.245Z,21.65
2022-08-17T19:31:58.909Z,21.27
2022-08-17T19:35:07.414Z,21.43
2022-08-17T19:45:12.668Z,21.17
2022-08-17T19:51:07.231Z,16.66
2022-08-17T19:54:05.407Z,20.91
2022-08-17T19:56:48.618Z,20.56
2022-08-17T19:59:41.344Z,20.86
2022-08-17T20:02:40.210Z,20.82
2022-08-17T20:06:14.477Z,17.26
2022-08-17T20:09:03.510Z,17.31
2022-08-17T20:11:59.607Z,20.64
2022-08-17T20:15:08.659Z,16.54
2022-08-17T20:17:48.458Z,16.41
2022-08-17T20:21:20.257Z,20.46
2022-08-17T20:24:12.639Z,17.66
2022-08-17T20:27:12.694Z,19.62
2022-08-17T20:30:08.357Z,20.10
2022-08-17T20:33:12.477Z,20.08
2022-08-17T20:36:16.601Z,15.26
2022-08-17T20:38:58.657Z,20.03
2022-08-17T20:41:30.703Z,19.42
2022-08-17T20:44:13.465Z,20.00
2022-08-17T20:46:53.729Z,19.95
2022-08-17T20:50:25.801Z,19.91
2022-08-17T20:52:47.826Z,19.80
2022-08-17T20:55:52.205Z,19.76
2022-08-17T20:58:29.930Z,19.69
2022-08-17T21:01:10.935Z,19.65
2022-08-17T21:06:25.392Z,19.56
2022-08-17T21:09:16.940Z,19.49
2022-08-17T21:12:05.520Z,18.22
2022-08-17T21:14:44.221Z,18.55
2022-08-17T21:17:29.599Z,19.00
2022-08-17T21:20:17.645Z,19.00
2022-08-17T21:23:06.014Z,17.92
2022-08-17T21:25:49.373Z,18.93
2022-08-17T21:28:59.968Z,18.91
2022-08-17T21:31:52.188Z,18.93
2022-08-17T21:34:25.925Z,18.93
2022-08-17T21:37:15.666Z,17.52
2022-08-17T21:39:48.163Z,18.95
2022-08-17T21:42:15.633Z,18.28
2022-08-17T21:45:08.659Z,18.93
2022-08-17T21:48:29.518Z,18.86
2022-08-17T21:50:57.639Z,18.71
2022-08-17T21:53:33.859Z,18.63
2022-08-17T21:56:01.950Z,18.59
2022-08-17T21:58:35.623Z,17.74
2022-08-17T22:01:24.704Z,18.52
2022-08-17T22:04:18.062Z,18.52
2022-08-17T22:06:52.551Z,18.53
2022-08-17T22:09:40.683Z,18.52
2022-08-17T22:12:21.662Z,18.51
2022-08-17T22:15:04.083Z,17.07
2022-08-17T22:17:36.623Z,18.47
2022-08-17T22:20:14.300Z,18.19
2022-08-17T22:23:08.826Z,18.36
2022-08-17T22:25:40.557Z,18.28
2022-08-17T22:28:10.575Z,17.70
2022-08-17T22:30:42.157Z,18.14
2022-08-17T22:33:39.928Z,18.11
2022-08-17T22:36:09.178Z,18.11
2022-08-17T22:38:37.616Z,17.98
2022-08-17T22:41:27.753Z,18.04
2022-08-17T22:43:57.536Z,17.96
2022-08-17T22:46:24.377Z,17.93
2022-08-17T22:49:01.827Z,18.06
2022-08-17T22:51:30.860Z,17.93
2022-08-17T22:54:21.215Z,17.69
2022-08-17T22:57:14.244Z,17.96
2022-08-17T22:59:54.892Z,17.94
2022-08-17T23:02:25.421Z,17.17
2022-08-17T23:05:15.748Z,17.89
2022-08-17T23:07:44.701Z,17.87
2022-08-17T23:10:13.841Z,17.75
2022-08-17T23:12:40.573Z,17.84
2022-08-17T23:15:17.025Z,17.83
2022-08-17T23:17:44.499Z,17.25
2022-08-17T23:20:14.968Z,17.82
2022-08-17T23:22:51.794Z,17.85
2022-08-17T23:25:26.340Z,17.61
2022-08-17T23:27:53.093Z,17.49
2022-08-17T23:30:19.828Z,17.74
2022-08-17T23:32:53.590Z,16.73
2022-08-17T23:35:21.019Z,17.73
2022-08-17T23:38:07.566Z,17.28
2022-08-17T23:40:34.052Z,17.61
2022-08-17T23:43:00.626Z,17.05
2022-08-17T23:45:32.081Z,17.53
2022-08-17T23:47:58.453Z,17.40
2022-08-17T23:50:25.322Z,17.63
2022-08-17T23:52:57.789Z,17.44
2022-08-17T23:55:24.350Z,17.59
2022-08-17T23:57:50.887Z,17.36
